This is the latest recevied weather packets stored in our database for station/object KC5L-7. If no packets are shown the sender has not sent any weather packets the latest 1 day(s).
| Time | Temp. | Humidity | Pressure | Rain* | Wind** | Luminosity | Snow |
|---|---|---|---|---|---|---|---|
| 1778016080 | 28.89° C | 63% | 1003.5 hPa | 0 mm | 0.45 m/s, 184° | - | - |
| 1778015480 | 28.89° C | 64% | 1003.7 hPa | 0 mm | 0.45 m/s, 190° | - | - |
| 1778014879 | 28.89° C | 65% | 1003.9 hPa | 0 mm | 0.45 m/s, 185° | - | - |
| 1778014280 | 28.89° C | 63% | 1004 hPa | 0 mm | 0.45 m/s, 190° | - | - |
| 1778013680 | 28.89° C | 63% | 1004.2 hPa | 0 mm | 0.89 m/s, 189° | - | - |
| 1778013080 | 28.89° C | 64% | 1004.3 hPa | 0 mm | 0.89 m/s, 187° | - | - |
| 1778012480 | 28.89° C | 65% | 1004.6 hPa | 0 mm | 0.89 m/s, 186° | - | - |
| 1778011880 | 28.89° C | 65% | 1004.7 hPa | 0 mm | 0.89 m/s, 189° | - | - |
| 1778011280 | 28.33° C | 68% | 1004.9 hPa | 0 mm | 0.45 m/s, 189° | - | - |
| 1778010680 | 27.78° C | 68% | 1005 hPa | 0 mm | 0 m/s | - | - |
| 1778010080 | 28.33° C | 68% | 1005 hPa | 0 mm | 0.45 m/s, 189° | - | - |
| 1778009480 | 27.78° C | 69% | 1005.1 hPa | 0 mm | 0.45 m/s, 186° | - | - |
| 1778008880 | 27.78° C | 69% | 1005.3 hPa | 0 mm | 0.45 m/s, 185° | - | - |
| 1778008281 | 27.22° C | 71% | 1005.4 hPa | 0 mm | 0.45 m/s, 182° | - | - |
| 1778007680 | 27.22° C | 71% | 1005.7 hPa | 0 mm | 0.89 m/s, 183° | - | - |
| 1778007081 | 27.22° C | 71% | 1005.9 hPa | 0 mm | 0.45 m/s, 204° | - | - |
| 1778006481 | 26.67° C | 73% | 1006 hPa | 0 mm | 0.89 m/s, 192° | - | - |
| 1778005880 | 26.67° C | 73% | 1006.1 hPa | 0 mm | 0 m/s | - | - |
| 1778005280 | 26.11° C | 74% | 1006.3 hPa | 0 mm | 0.45 m/s, 225° | - | - |
| 1778004680 | 26.11° C | 75% | 1006.3 hPa | 0 mm | 0.89 m/s, 201° | - | - |
| 1778004080 | 25.56° C | 76% | 1006.4 hPa | 0 mm | 0.89 m/s, 185° | - | - |
| 1778003480 | 25.56° C | 78% | 1006.6 hPa | 0 mm | 0.89 m/s, 188° | - | - |
| 1778002880 | 25° C | 79% | 1006.7 hPa | 0 mm | 0.89 m/s, 194° | - | - |
| 1778002280 | 25° C | 80% | 1006.8 hPa | 0 mm | 0.89 m/s, 187° | - | - |
| 1778001080 | 23.89° C | 83% | 1006.9 hPa | 0 mm | 0.45 m/s, 203° | - | - |
* Rain latest hour (hover to see other rain measurements)
** Current wind speed in m/s (hover to see current wind gust speed)